sensor_id;sensor_type;location;lat;lon;timestamp;P1;durP1;ratioP1;P2;durP2;ratioP2
6203;SDS011;3135;42.602;23.468;2022-07-06T00:01:53;15.50;;;11.27;;
6203;SDS011;3135;42.602;23.468;2022-07-06T00:04:19;15.13;;;11.30;;
6203;SDS011;3135;42.602;23.468;2022-07-06T00:06:44;17.27;;;11.97;;
6203;SDS011;3135;42.602;23.468;2022-07-06T00:09:10;14.27;;;11.30;;
6203;SDS011;3135;42.602;23.468;2022-07-06T00:11:36;13.93;;;10.57;;
6203;SDS011;3135;42.602;23.468;2022-07-06T00:14:01;14.50;;;10.52;;
6203;SDS011;3135;42.602;23.468;2022-07-06T00:16:27;15.00;;;11.40;;
6203;SDS011;3135;42.602;23.468;2022-07-06T00:18:53;15.57;;;11.00;;
6203;SDS011;3135;42.602;23.468;2022-07-06T00:21:19;14.03;;;11.27;;
6203;SDS011;3135;42.602;23.468;2022-07-06T00:23:44;13.50;;;10.10;;
6203;SDS011;3135;42.602;23.468;2022-07-06T00:26:10;13.45;;;9.75;;
6203;SDS011;3135;42.602;23.468;2022-07-06T00:28:35;13.25;;;9.45;;
6203;SDS011;3135;42.602;23.468;2022-07-06T00:31:01;14.07;;;9.10;;
6203;SDS011;3135;42.602;23.468;2022-07-06T00:33:26;14.00;;;10.03;;
6203;SDS011;3135;42.602;23.468;2022-07-06T00:35:52;12.53;;;10.07;;
6203;SDS011;3135;42.602;23.468;2022-07-06T00:38:17;12.07;;;9.80;;
6203;SDS011;3135;42.602;23.468;2022-07-06T00:40:43;11.32;;;9.18;;
6203;SDS011;3135;42.602;23.468;2022-07-06T00:43:08;11.05;;;8.50;;
6203;SDS011;3135;42.602;23.468;2022-07-06T00:45:34;12.07;;;9.23;;
6203;SDS011;3135;42.602;23.468;2022-07-06T00:47:59;11.40;;;8.87;;
6203;SDS011;3135;42.602;23.468;2022-07-06T00:50:25;10.80;;;8.20;;
6203;SDS011;3135;42.602;23.468;2022-07-06T00:52:57;10.05;;;7.65;;
6203;SDS011;3135;42.602;23.468;2022-07-06T00:55:27;11.45;;;7.97;;
6203;SDS011;3135;42.602;23.468;2022-07-06T00:57:54;14.23;;;7.95;;
6203;SDS011;3135;42.602;23.468;2022-07-06T01:00:22;13.40;;;8.20;;
6203;SDS011;3135;42.602;23.468;2022-07-06T01:02:49;12.50;;;8.48;;
6203;SDS011;3135;42.602;23.468;2022-07-06T01:05:15;13.02;;;8.80;;
6203;SDS011;3135;42.602;23.468;2022-07-06T01:07:42;10.40;;;8.27;;
6203;SDS011;3135;42.602;23.468;2022-07-06T01:10:10;12.30;;;8.93;;
6203;SDS011;3135;42.602;23.468;2022-07-06T01:12:38;11.40;;;8.63;;
6203;SDS011;3135;42.602;23.468;2022-07-06T01:15:06;14.68;;;9.25;;
6203;SDS011;3135;42.602;23.468;2022-07-06T01:17:34;13.25;;;9.02;;
6203;SDS011;3135;42.602;23.468;2022-07-06T01:20:15;10.87;;;8.03;;
6203;SDS011;3135;42.602;23.468;2022-07-06T01:22:42;10.38;;;7.68;;
6203;SDS011;3135;42.602;23.468;2022-07-06T01:25:09;11.40;;;6.70;;
6203;SDS011;3135;42.602;23.468;2022-07-06T01:27:35;10.98;;;7.38;;
6203;SDS011;3135;42.602;23.468;2022-07-06T01:30:08;11.25;;;6.63;;
6203;SDS011;3135;42.602;23.468;2022-07-06T01:32:36;11.27;;;6.75;;
6203;SDS011;3135;42.602;23.468;2022-07-06T01:35:02;9.63;;;7.25;;
6203;SDS011;3135;42.602;23.468;2022-07-06T01:37:30;13.15;;;8.77;;
6203;SDS011;3135;42.602;23.468;2022-07-06T01:39:59;11.57;;;8.10;;
6203;SDS011;3135;42.602;23.468;2022-07-06T01:42:25;11.95;;;8.52;;
6203;SDS011;3135;42.602;23.468;2022-07-06T01:44:51;9.67;;;8.07;;
6203;SDS011;3135;42.602;23.468;2022-07-06T01:47:17;12.63;;;8.60;;
6203;SDS011;3135;42.602;23.468;2022-07-06T01:49:42;11.80;;;8.40;;
6203;SDS011;3135;42.602;23.468;2022-07-06T01:52:08;14.65;;;9.40;;
6203;SDS011;3135;42.602;23.468;2022-07-06T01:54:33;11.40;;;8.30;;
6203;SDS011;3135;42.602;23.468;2022-07-06T01:56:59;12.47;;;8.80;;
6203;SDS011;3135;42.602;23.468;2022-07-06T01:59:24;10.60;;;7.93;;
6203;SDS011;3135;42.602;23.468;2022-07-06T02:01:49;13.18;;;8.90;;
6203;SDS011;3135;42.602;23.468;2022-07-06T02:04:15;13.37;;;8.60;;
6203;SDS011;3135;42.602;23.468;2022-07-06T02:06:40;13.57;;;8.97;;
6203;SDS011;3135;42.602;23.468;2022-07-06T02:09:06;13.27;;;8.93;;
6203;SDS011;3135;42.602;23.468;2022-07-06T02:11:31;18.10;;;10.47;;
6203;SDS011;3135;42.602;23.468;2022-07-06T02:13:57;16.30;;;10.17;;
6203;SDS011;3135;42.602;23.468;2022-07-06T02:16:22;18.00;;;10.20;;
6203;SDS011;3135;42.602;23.468;2022-07-06T02:18:48;15.52;;;10.43;;
6203;SDS011;3135;42.602;23.468;2022-07-06T02:21:13;14.80;;;9.83;;
6203;SDS011;3135;42.602;23.468;2022-07-06T02:23:38;14.33;;;9.90;;
6203;SDS011;3135;42.602;23.468;2022-07-06T02:26:04;15.82;;;10.40;;
6203;SDS011;3135;42.602;23.468;2022-07-06T02:28:29;19.83;;;11.13;;
6203;SDS011;3135;42.602;23.468;2022-07-06T02:30:55;19.10;;;11.57;;
6203;SDS011;3135;42.602;23.468;2022-07-06T02:33:21;21.53;;;12.00;;
6203;SDS011;3135;42.602;23.468;2022-07-06T02:35:46;18.23;;;11.03;;
6203;SDS011;3135;42.602;23.468;2022-07-06T02:38:12;17.33;;;10.23;;
6203;SDS011;3135;42.602;23.468;2022-07-06T02:40:38;17.40;;;10.35;;
6203;SDS011;3135;42.602;23.468;2022-07-06T02:43:04;15.82;;;8.98;;
6203;SDS011;3135;42.602;23.468;2022-07-06T02:45:29;15.60;;;7.97;;
6203;SDS011;3135;42.602;23.468;2022-07-06T02:47:55;10.15;;;7.13;;
6203;SDS011;3135;42.602;23.468;2022-07-06T02:50:22;9.20;;;6.50;;
6203;SDS011;3135;42.602;23.468;2022-07-06T02:52:48;6.57;;;5.50;;
6203;SDS011;3135;42.602;23.468;2022-07-06T02:55:14;9.35;;;5.55;;
6203;SDS011;3135;42.602;23.468;2022-07-06T02:57:39;9.38;;;5.95;;
6203;SDS011;3135;42.602;23.468;2022-07-06T03:00:06;8.32;;;5.72;;
6203;SDS011;3135;42.602;23.468;2022-07-06T03:02:32;8.37;;;5.50;;
6203;SDS011;3135;42.602;23.468;2022-07-06T03:04:58;7.17;;;4.93;;
6203;SDS011;3135;42.602;23.468;2022-07-06T03:07:23;6.53;;;5.17;;
6203;SDS011;3135;42.602;23.468;2022-07-06T03:09:49;6.67;;;4.90;;
6203;SDS011;3135;42.602;23.468;2022-07-06T03:12:14;5.82;;;4.70;;
6203;SDS011;3135;42.602;23.468;2022-07-06T03:14:41;7.72;;;4.75;;
6203;SDS011;3135;42.602;23.468;2022-07-06T03:17:07;6.38;;;5.10;;
6203;SDS011;3135;42.602;23.468;2022-07-06T03:19:32;5.73;;;5.00;;
6203;SDS011;3135;42.602;23.468;2022-07-06T03:21:58;6.80;;;4.73;;
6203;SDS011;3135;42.602;23.468;2022-07-06T03:24:23;6.43;;;4.80;;
6203;SDS011;3135;42.602;23.468;2022-07-06T03:26:49;6.07;;;4.50;;
6203;SDS011;3135;42.602;23.468;2022-07-06T03:29:14;6.97;;;4.67;;
6203;SDS011;3135;42.602;23.468;2022-07-06T03:31:39;7.43;;;4.73;;
6203;SDS011;3135;42.602;23.468;2022-07-06T03:34:05;6.07;;;4.30;;
6203;SDS011;3135;42.602;23.468;2022-07-06T03:36:31;5.88;;;4.43;;
6203;SDS011;3135;42.602;23.468;2022-07-06T03:38:56;5.93;;;4.67;;
6203;SDS011;3135;42.602;23.468;2022-07-06T03:41:22;8.40;;;5.10;;
6203;SDS011;3135;42.602;23.468;2022-07-06T03:43:47;5.53;;;4.88;;
6203;SDS011;3135;42.602;23.468;2022-07-06T03:46:13;6.47;;;4.90;;
6203;SDS011;3135;42.602;23.468;2022-07-06T03:48:38;5.20;;;4.17;;
6203;SDS011;3135;42.602;23.468;2022-07-06T03:51:04;6.37;;;4.70;;
6203;SDS011;3135;42.602;23.468;2022-07-06T03:53:30;6.28;;;4.93;;
6203;SDS011;3135;42.602;23.468;2022-07-06T03:55:56;7.10;;;4.72;;
6203;SDS011;3135;42.602;23.468;2022-07-06T03:58:39;6.70;;;4.85;;
6203;SDS011;3135;42.602;23.468;2022-07-06T04:01:05;8.43;;;4.87;;
6203;SDS011;3135;42.602;23.468;2022-07-06T04:03:30;7.72;;;5.15;;
6203;SDS011;3135;42.602;23.468;2022-07-06T04:05:56;8.73;;;5.17;;
6203;SDS011;3135;42.602;23.468;2022-07-06T04:08:21;8.17;;;5.17;;
6203;SDS011;3135;42.602;23.468;2022-07-06T04:10:47;6.68;;;5.20;;
6203;SDS011;3135;42.602;23.468;2022-07-06T04:13:12;6.47;;;4.85;;
6203;SDS011;3135;42.602;23.468;2022-07-06T04:15:38;8.43;;;5.63;;
6203;SDS011;3135;42.602;23.468;2022-07-06T04:18:04;7.85;;;5.40;;
6203;SDS011;3135;42.602;23.468;2022-07-06T04:20:29;7.75;;;5.45;;
6203;SDS011;3135;42.602;23.468;2022-07-06T04:22:55;9.02;;;5.40;;
6203;SDS011;3135;42.602;23.468;2022-07-06T04:25:20;7.40;;;5.27;;
6203;SDS011;3135;42.602;23.468;2022-07-06T04:27:46;6.70;;;5.30;;
6203;SDS011;3135;42.602;23.468;2022-07-06T04:30:11;7.10;;;5.00;;
6203;SDS011;3135;42.602;23.468;2022-07-06T04:32:37;8.13;;;4.53;;
6203;SDS011;3135;42.602;23.468;2022-07-06T04:35:04;5.97;;;4.50;;
6203;SDS011;3135;42.602;23.468;2022-07-06T04:37:30;7.05;;;4.57;;
6203;SDS011;3135;42.602;23.468;2022-07-06T04:39:55;8.40;;;5.23;;
6203;SDS011;3135;42.602;23.468;2022-07-06T04:42:21;5.82;;;4.28;;
6203;SDS011;3135;42.602;23.468;2022-07-06T04:44:46;8.50;;;5.10;;
6203;SDS011;3135;42.602;23.468;2022-07-06T04:47:12;8.90;;;4.67;;
6203;SDS011;3135;42.602;23.468;2022-07-06T04:49:38;6.65;;;4.68;;
6203;SDS011;3135;42.602;23.468;2022-07-06T04:52:04;6.93;;;4.73;;
6203;SDS011;3135;42.602;23.468;2022-07-06T04:54:30;9.45;;;4.35;;
6203;SDS011;3135;42.602;23.468;2022-07-06T04:56:55;9.82;;;5.35;;
6203;SDS011;3135;42.602;23.468;2022-07-06T04:59:21;11.88;;;5.90;;
6203;SDS011;3135;42.602;23.468;2022-07-06T05:01:46;6.45;;;4.82;;
6203;SDS011;3135;42.602;23.468;2022-07-06T05:04:12;10.70;;;6.30;;
6203;SDS011;3135;42.602;23.468;2022-07-06T05:06:38;7.70;;;5.50;;
6203;SDS011;3135;42.602;23.468;2022-07-06T05:09:04;8.53;;;5.77;;
6203;SDS011;3135;42.602;23.468;2022-07-06T05:11:30;9.20;;;5.60;;
6203;SDS011;3135;42.602;23.468;2022-07-06T05:13:55;11.20;;;6.30;;
6203;SDS011;3135;42.602;23.468;2022-07-06T05:16:21;9.02;;;5.80;;
6203;SDS011;3135;42.602;23.468;2022-07-06T05:18:46;10.27;;;5.80;;
6203;SDS011;3135;42.602;23.468;2022-07-06T05:21:12;9.87;;;5.27;;
6203;SDS011;3135;42.602;23.468;2022-07-06T05:23:37;8.03;;;5.20;;
6203;SDS011;3135;42.602;23.468;2022-07-06T05:26:03;8.53;;;5.30;;
6203;SDS011;3135;42.602;23.468;2022-07-06T05:28:29;9.07;;;5.33;;
6203;SDS011;3135;42.602;23.468;2022-07-06T05:30:54;8.88;;;5.75;;
6203;SDS011;3135;42.602;23.468;2022-07-06T05:33:19;13.43;;;6.70;;
6203;SDS011;3135;42.602;23.468;2022-07-06T05:35:45;14.07;;;6.63;;
6203;SDS011;3135;42.602;23.468;2022-07-06T05:38:10;10.77;;;5.93;;
6203;SDS011;3135;42.602;23.468;2022-07-06T05:40:36;12.80;;;7.00;;
6203;SDS011;3135;42.602;23.468;2022-07-06T05:43:02;14.05;;;7.25;;
6203;SDS011;3135;42.602;23.468;2022-07-06T05:45:27;9.55;;;6.60;;
6203;SDS011;3135;42.602;23.468;2022-07-06T05:47:53;12.02;;;6.78;;
6203;SDS011;3135;42.602;23.468;2022-07-06T05:50:37;10.45;;;6.63;;
6203;SDS011;3135;42.602;23.468;2022-07-06T05:53:04;10.57;;;6.43;;
6203;SDS011;3135;42.602;23.468;2022-07-06T05:55:30;9.27;;;6.15;;
6203;SDS011;3135;42.602;23.468;2022-07-06T05:57:56;11.00;;;6.13;;
6203;SDS011;3135;42.602;23.468;2022-07-06T06:00:23;9.30;;;6.20;;
6203;SDS011;3135;42.602;23.468;2022-07-06T06:02:49;12.48;;;6.38;;
6203;SDS011;3135;42.602;23.468;2022-07-06T06:05:14;13.07;;;6.10;;
6203;SDS011;3135;42.602;23.468;2022-07-06T06:07:40;8.30;;;5.87;;
6203;SDS011;3135;42.602;23.468;2022-07-06T06:10:10;8.35;;;5.68;;
6203;SDS011;3135;42.602;23.468;2022-07-06T06:12:38;11.47;;;5.97;;
6203;SDS011;3135;42.602;23.468;2022-07-06T06:15:04;10.07;;;5.63;;
6203;SDS011;3135;42.602;23.468;2022-07-06T06:17:31;9.18;;;5.82;;
6203;SDS011;3135;42.602;23.468;2022-07-06T06:19:57;10.55;;;6.00;;
6203;SDS011;3135;42.602;23.468;2022-07-06T06:22:23;7.78;;;5.70;;
6203;SDS011;3135;42.602;23.468;2022-07-06T06:24:49;10.90;;;5.80;;
6203;SDS011;3135;42.602;23.468;2022-07-06T06:27:15;10.20;;;5.90;;
6203;SDS011;3135;42.602;23.468;2022-07-06T06:29:40;11.17;;;6.47;;
6203;SDS011;3135;42.602;23.468;2022-07-06T06:32:09;9.55;;;6.30;;
6203;SDS011;3135;42.602;23.468;2022-07-06T06:34:36;11.57;;;6.68;;
6203;SDS011;3135;42.602;23.468;2022-07-06T06:37:02;9.95;;;6.35;;
6203;SDS011;3135;42.602;23.468;2022-07-06T06:39:28;9.68;;;5.95;;
6203;SDS011;3135;42.602;23.468;2022-07-06T06:41:53;10.90;;;6.22;;
6203;SDS011;3135;42.602;23.468;2022-07-06T06:44:18;9.50;;;5.93;;
6203;SDS011;3135;42.602;23.468;2022-07-06T06:46:44;11.67;;;5.80;;
6203;SDS011;3135;42.602;23.468;2022-07-06T06:49:10;10.27;;;6.30;;
6203;SDS011;3135;42.602;23.468;2022-07-06T06:51:35;10.27;;;6.40;;
6203;SDS011;3135;42.602;23.468;2022-07-06T06:54:02;11.20;;;6.43;;
6203;SDS011;3135;42.602;23.468;2022-07-06T06:56:28;12.15;;;6.30;;
6203;SDS011;3135;42.602;23.468;2022-07-06T06:58:53;15.83;;;6.83;;
6203;SDS011;3135;42.602;23.468;2022-07-06T07:01:19;11.25;;;6.68;;
6203;SDS011;3135;42.602;23.468;2022-07-06T07:03:44;12.02;;;6.57;;
6203;SDS011;3135;42.602;23.468;2022-07-06T07:06:10;10.87;;;6.33;;
6203;SDS011;3135;42.602;23.468;2022-07-06T07:08:35;12.77;;;7.03;;
6203;SDS011;3135;42.602;23.468;2022-07-06T07:11:01;11.83;;;6.97;;
6203;SDS011;3135;42.602;23.468;2022-07-06T07:13:26;13.18;;;6.70;;
6203;SDS011;3135;42.602;23.468;2022-07-06T07:15:52;12.02;;;7.05;;
6203;SDS011;3135;42.602;23.468;2022-07-06T07:18:17;13.20;;;6.27;;
6203;SDS011;3135;42.602;23.468;2022-07-06T07:20:43;12.30;;;6.87;;
6203;SDS011;3135;42.602;23.468;2022-07-06T07:23:09;9.57;;;6.90;;
6203;SDS011;3135;42.602;23.468;2022-07-06T07:25:34;11.70;;;7.32;;
6203;SDS011;3135;42.602;23.468;2022-07-06T07:27:59;10.87;;;7.00;;
6203;SDS011;3135;42.602;23.468;2022-07-06T07:30:25;12.87;;;7.60;;
6203;SDS011;3135;42.602;23.468;2022-07-06T07:32:51;11.77;;;7.30;;
6203;SDS011;3135;42.602;23.468;2022-07-06T07:35:16;11.82;;;7.28;;
6203;SDS011;3135;42.602;23.468;2022-07-06T07:37:42;14.40;;;7.30;;
6203;SDS011;3135;42.602;23.468;2022-07-06T07:40:07;11.40;;;7.32;;
6203;SDS011;3135;42.602;23.468;2022-07-06T07:42:33;10.50;;;7.13;;
6203;SDS011;3135;42.602;23.468;2022-07-06T07:44:59;11.93;;;7.40;;
6203;SDS011;3135;42.602;23.468;2022-07-06T07:47:24;12.30;;;7.60;;
6203;SDS011;3135;42.602;23.468;2022-07-06T07:49:50;11.60;;;7.53;;
6203;SDS011;3135;42.602;23.468;2022-07-06T07:52:15;11.80;;;7.30;;
6203;SDS011;3135;42.602;23.468;2022-07-06T07:54:41;12.50;;;7.93;;
6203;SDS011;3135;42.602;23.468;2022-07-06T07:57:07;11.60;;;7.40;;
6203;SDS011;3135;42.602;23.468;2022-07-06T07:59:32;11.73;;;7.53;;
6203;SDS011;3135;42.602;23.468;2022-07-06T08:01:58;11.77;;;7.63;;
6203;SDS011;3135;42.602;23.468;2022-07-06T08:04:23;14.63;;;7.57;;
6203;SDS011;3135;42.602;23.468;2022-07-06T08:06:49;12.55;;;7.53;;
6203;SDS011;3135;42.602;23.468;2022-07-06T08:09:14;12.90;;;8.47;;
6203;SDS011;3135;42.602;23.468;2022-07-06T08:11:41;14.00;;;8.50;;
6203;SDS011;3135;42.602;23.468;2022-07-06T08:14:07;11.73;;;7.43;;
6203;SDS011;3135;42.602;23.468;2022-07-06T08:16:33;13.83;;;8.17;;
6203;SDS011;3135;42.602;23.468;2022-07-06T08:18:58;11.13;;;7.07;;
6203;SDS011;3135;42.602;23.468;2022-07-06T08:21:24;9.43;;;7.10;;
6203;SDS011;3135;42.602;23.468;2022-07-06T08:23:49;9.15;;;7.10;;
6203;SDS011;3135;42.602;23.468;2022-07-06T08:26:15;13.27;;;7.10;;
6203;SDS011;3135;42.602;23.468;2022-07-06T08:28:40;9.13;;;6.57;;
6203;SDS011;3135;42.602;23.468;2022-07-06T08:31:06;10.00;;;6.80;;
6203;SDS011;3135;42.602;23.468;2022-07-06T08:33:31;9.93;;;7.63;;
6203;SDS011;3135;42.602;23.468;2022-07-06T08:35:56;12.20;;;7.57;;
6203;SDS011;3135;42.602;23.468;2022-07-06T08:38:22;10.55;;;7.45;;
6203;SDS011;3135;42.602;23.468;2022-07-06T08:40:48;11.97;;;7.00;;
6203;SDS011;3135;42.602;23.468;2022-07-06T08:43:15;11.43;;;7.20;;
6203;SDS011;3135;42.602;23.468;2022-07-06T08:45:41;11.77;;;7.43;;
6203;SDS011;3135;42.602;23.468;2022-07-06T08:48:09;12.60;;;7.57;;
6203;SDS011;3135;42.602;23.468;2022-07-06T08:50:36;10.98;;;7.18;;
6203;SDS011;3135;42.602;23.468;2022-07-06T08:53:01;12.25;;;7.38;;
6203;SDS011;3135;42.602;23.468;2022-07-06T08:55:27;8.38;;;6.68;;
6203;SDS011;3135;42.602;23.468;2022-07-06T08:57:57;10.57;;;7.60;;
6203;SDS011;3135;42.602;23.468;2022-07-06T09:00:22;12.90;;;8.00;;
6203;SDS011;3135;42.602;23.468;2022-07-06T09:02:50;12.32;;;7.68;;
6203;SDS011;3135;42.602;23.468;2022-07-06T09:05:16;11.23;;;7.78;;
6203;SDS011;3135;42.602;23.468;2022-07-06T09:07:42;10.27;;;7.28;;
6203;SDS011;3135;42.602;23.468;2022-07-06T09:10:13;11.15;;;7.13;;
6203;SDS011;3135;42.602;23.468;2022-07-06T09:12:39;12.38;;;7.60;;
6203;SDS011;3135;42.602;23.468;2022-07-06T09:15:05;8.93;;;6.97;;
6203;SDS011;3135;42.602;23.468;2022-07-06T09:17:31;10.05;;;6.82;;
6203;SDS011;3135;42.602;23.468;2022-07-06T09:19:57;9.68;;;6.97;;
6203;SDS011;3135;42.602;23.468;2022-07-06T09:22:27;8.87;;;6.90;;
6203;SDS011;3135;42.602;23.468;2022-07-06T09:27:36;7.82;;;6.47;;
6203;SDS011;3135;42.602;23.468;2022-07-06T09:30:07;8.20;;;6.60;;
6203;SDS011;3135;42.602;23.468;2022-07-06T09:35:36;8.60;;;6.50;;
6203;SDS011;3135;42.602;23.468;2022-07-06T09:38:06;8.65;;;6.32;;
6203;SDS011;3135;42.602;23.468;2022-07-06T09:40:33;9.23;;;6.88;;
6203;SDS011;3135;42.602;23.468;2022-07-06T09:43:11;10.90;;;7.45;;
6203;SDS011;3135;42.602;23.468;2022-07-06T09:45:39;11.87;;;7.53;;
6203;SDS011;3135;42.602;23.468;2022-07-06T09:48:27;9.17;;;6.97;;
6203;SDS011;3135;42.602;23.468;2022-07-06T09:50:54;8.52;;;6.55;;
6203;SDS011;3135;42.602;23.468;2022-07-06T09:53:21;9.77;;;6.82;;
6203;SDS011;3135;42.602;23.468;2022-07-06T09:55:53;9.27;;;7.10;;
6203;SDS011;3135;42.602;23.468;2022-07-06T09:58:20;11.20;;;7.50;;
6203;SDS011;3135;42.602;23.468;2022-07-06T10:00:47;9.50;;;7.15;;
6203;SDS011;3135;42.602;23.468;2022-07-06T10:03:15;10.60;;;7.60;;
6203;SDS011;3135;42.602;23.468;2022-07-06T10:05:42;11.43;;;7.65;;
6203;SDS011;3135;42.602;23.468;2022-07-06T10:08:12;12.43;;;7.63;;
6203;SDS011;3135;42.602;23.468;2022-07-06T10:10:39;11.80;;;7.60;;
6203;SDS011;3135;42.602;23.468;2022-07-06T10:13:06;10.47;;;7.53;;
6203;SDS011;3135;42.602;23.468;2022-07-06T10:15:34;10.10;;;7.03;;
6203;SDS011;3135;42.602;23.468;2022-07-06T10:18:02;11.32;;;7.47;;
6203;SDS011;3135;42.602;23.468;2022-07-06T10:20:33;9.77;;;6.63;;
6203;SDS011;3135;42.602;23.468;2022-07-06T10:23:03;11.88;;;7.22;;
6203;SDS011;3135;42.602;23.468;2022-07-06T10:25:30;10.82;;;7.97;;
6203;SDS011;3135;42.602;23.468;2022-07-06T10:27:57;12.15;;;7.43;;
6203;SDS011;3135;42.602;23.468;2022-07-06T10:30:24;9.23;;;7.40;;
6203;SDS011;3135;42.602;23.468;2022-07-06T10:32:50;8.90;;;7.07;;
6203;SDS011;3135;42.602;23.468;2022-07-06T10:35:20;11.23;;;7.90;;
6203;SDS011;3135;42.602;23.468;2022-07-06T10:37:46;12.02;;;8.10;;
6203;SDS011;3135;42.602;23.468;2022-07-06T10:40:32;12.75;;;7.60;;
6203;SDS011;3135;42.602;23.468;2022-07-06T10:43:17;10.63;;;7.80;;
6203;SDS011;3135;42.602;23.468;2022-07-06T10:50:37;11.23;;;7.30;;
6203;SDS011;3135;42.602;23.468;2022-07-06T10:53:16;10.05;;;7.60;;
6203;SDS011;3135;42.602;23.468;2022-07-06T10:55:43;13.35;;;8.07;;
6203;SDS011;3135;42.602;23.468;2022-07-06T10:58:15;9.82;;;7.80;;
6203;SDS011;3135;42.602;23.468;2022-07-06T11:01:00;10.82;;;7.15;;
6203;SDS011;3135;42.602;23.468;2022-07-06T11:08:57;10.27;;;7.78;;
6203;SDS011;3135;42.602;23.468;2022-07-06T11:11:25;12.10;;;8.15;;
6203;SDS011;3135;42.602;23.468;2022-07-06T11:16:27;11.52;;;7.72;;
6203;SDS011;3135;42.602;23.468;2022-07-06T11:19:03;10.82;;;7.43;;
6203;SDS011;3135;42.602;23.468;2022-07-06T11:24:31;11.15;;;7.07;;
6203;SDS011;3135;42.602;23.468;2022-07-06T11:26:59;12.07;;;7.20;;
6203;SDS011;3135;42.602;23.468;2022-07-06T11:29:27;11.10;;;7.82;;
6203;SDS011;3135;42.602;23.468;2022-07-06T11:31:54;11.70;;;7.40;;
6203;SDS011;3135;42.602;23.468;2022-07-06T11:34:25;11.70;;;8.23;;
6203;SDS011;3135;42.602;23.468;2022-07-06T11:36:59;10.50;;;7.53;;
6203;SDS011;3135;42.602;23.468;2022-07-06T11:39:48;10.85;;;8.02;;
6203;SDS011;3135;42.602;23.468;2022-07-06T11:42:14;11.63;;;8.00;;
6203;SDS011;3135;42.602;23.468;2022-07-06T11:44:42;10.37;;;7.80;;
6203;SDS011;3135;42.602;23.468;2022-07-06T11:47:08;9.13;;;7.60;;
6203;SDS011;3135;42.602;23.468;2022-07-06T11:49:36;10.13;;;8.25;;
6203;SDS011;3135;42.602;23.468;2022-07-06T11:52:06;9.25;;;7.40;;
6203;SDS011;3135;42.602;23.468;2022-07-06T11:54:36;11.38;;;8.38;;
6203;SDS011;3135;42.602;23.468;2022-07-06T11:57:02;10.05;;;7.68;;
6203;SDS011;3135;42.602;23.468;2022-07-06T11:59:35;12.55;;;8.10;;
6203;SDS011;3135;42.602;23.468;2022-07-06T12:02:03;11.15;;;7.82;;
6203;SDS011;3135;42.602;23.468;2022-07-06T12:04:34;10.18;;;8.50;;
6203;SDS011;3135;42.602;23.468;2022-07-06T12:07:01;11.32;;;8.13;;
6203;SDS011;3135;42.602;23.468;2022-07-06T12:09:36;11.57;;;8.35;;
6203;SDS011;3135;42.602;23.468;2022-07-06T12:12:03;11.03;;;8.47;;
6203;SDS011;3135;42.602;23.468;2022-07-06T12:14:30;12.30;;;8.50;;
6203;SDS011;3135;42.602;23.468;2022-07-06T12:17:02;13.43;;;9.25;;
6203;SDS011;3135;42.602;23.468;2022-07-06T12:19:29;15.40;;;9.10;;
6203;SDS011;3135;42.602;23.468;2022-07-06T12:21:54;10.43;;;8.20;;
6203;SDS011;3135;42.602;23.468;2022-07-06T12:24:24;10.90;;;8.38;;
6203;SDS011;3135;42.602;23.468;2022-07-06T12:26:58;10.20;;;8.27;;
6203;SDS011;3135;42.602;23.468;2022-07-06T12:29:24;10.25;;;7.70;;
6203;SDS011;3135;42.602;23.468;2022-07-06T12:31:50;9.73;;;7.50;;
6203;SDS011;3135;42.602;23.468;2022-07-06T12:34:21;8.77;;;7.50;;
6203;SDS011;3135;42.602;23.468;2022-07-06T12:36:54;12.07;;;8.10;;
6203;SDS011;3135;42.602;23.468;2022-07-06T12:39:22;10.38;;;7.32;;
6203;SDS011;3135;42.602;23.468;2022-07-06T12:41:50;11.15;;;7.90;;
6203;SDS011;3135;42.602;23.468;2022-07-06T12:44:19;10.55;;;7.03;;
6203;SDS011;3135;42.602;23.468;2022-07-06T12:47:09;8.35;;;7.47;;
6203;SDS011;3135;42.602;23.468;2022-07-06T12:49:35;9.95;;;7.60;;
6203;SDS011;3135;42.602;23.468;2022-07-06T12:52:14;9.10;;;6.40;;
6203;SDS011;3135;42.602;23.468;2022-07-06T12:54:48;8.83;;;6.87;;
6203;SDS011;3135;42.602;23.468;2022-07-06T12:57:18;9.20;;;7.18;;
6203;SDS011;3135;42.602;23.468;2022-07-06T12:59:53;9.80;;;7.82;;
6203;SDS011;3135;42.602;23.468;2022-07-06T13:02:22;10.13;;;7.05;;
6203;SDS011;3135;42.602;23.468;2022-07-06T13:07:34;9.55;;;7.13;;
6203;SDS011;3135;42.602;23.468;2022-07-06T13:10:03;11.23;;;7.25;;
6203;SDS011;3135;42.602;23.468;2022-07-06T13:12:30;9.13;;;7.07;;
6203;SDS011;3135;42.602;23.468;2022-07-06T13:14:56;8.88;;;7.32;;
6203;SDS011;3135;42.602;23.468;2022-07-06T13:17:22;8.57;;;7.10;;
6203;SDS011;3135;42.602;23.468;2022-07-06T13:19:48;7.10;;;6.32;;
6203;SDS011;3135;42.602;23.468;2022-07-06T13:22:14;7.97;;;6.63;;
6203;SDS011;3135;42.602;23.468;2022-07-06T13:24:40;7.70;;;6.50;;
6203;SDS011;3135;42.602;23.468;2022-07-06T13:27:06;6.37;;;5.70;;
6203;SDS011;3135;42.602;23.468;2022-07-06T13:29:31;6.70;;;5.68;;
6203;SDS011;3135;42.602;23.468;2022-07-06T13:31:57;6.38;;;5.13;;
6203;SDS011;3135;42.602;23.468;2022-07-06T13:34:22;7.00;;;5.40;;
6203;SDS011;3135;42.602;23.468;2022-07-06T13:36:49;6.55;;;4.70;;
6203;SDS011;3135;42.602;23.468;2022-07-06T13:39:15;5.85;;;5.32;;
6203;SDS011;3135;42.602;23.468;2022-07-06T13:41:41;5.30;;;4.90;;
6203;SDS011;3135;42.602;23.468;2022-07-06T13:44:06;5.53;;;4.90;;
6203;SDS011;3135;42.602;23.468;2022-07-06T13:46:34;6.00;;;4.53;;
6203;SDS011;3135;42.602;23.468;2022-07-06T13:49:01;5.28;;;4.60;;
6203;SDS011;3135;42.602;23.468;2022-07-06T13:51:28;5.18;;;4.20;;
6203;SDS011;3135;42.602;23.468;2022-07-06T13:53:53;5.32;;;4.15;;
6203;SDS011;3135;42.602;23.468;2022-07-06T13:56:19;4.13;;;3.83;;
6203;SDS011;3135;42.602;23.468;2022-07-06T13:58:45;3.27;;;3.07;;
6203;SDS011;3135;42.602;23.468;2022-07-06T14:01:11;3.90;;;3.60;;
6203;SDS011;3135;42.602;23.468;2022-07-06T14:03:37;3.90;;;3.50;;
6203;SDS011;3135;42.602;23.468;2022-07-06T14:06:03;3.60;;;3.30;;
6203;SDS011;3135;42.602;23.468;2022-07-06T14:08:33;5.10;;;3.92;;
6203;SDS011;3135;42.602;23.468;2022-07-06T14:11:00;3.97;;;3.53;;
6203;SDS011;3135;42.602;23.468;2022-07-06T14:13:26;3.50;;;3.30;;
6203;SDS011;3135;42.602;23.468;2022-07-06T14:15:52;4.43;;;3.17;;
6203;SDS011;3135;42.602;23.468;2022-07-06T14:18:18;2.80;;;2.70;;
6203;SDS011;3135;42.602;23.468;2022-07-06T14:20:45;2.75;;;2.65;;
6203;SDS011;3135;42.602;23.468;2022-07-06T14:23:11;2.70;;;2.50;;
6203;SDS011;3135;42.602;23.468;2022-07-06T14:25:37;2.85;;;2.58;;
6203;SDS011;3135;42.602;23.468;2022-07-06T14:28:03;2.60;;;2.40;;
6203;SDS011;3135;42.602;23.468;2022-07-06T14:30:29;2.70;;;2.50;;
6203;SDS011;3135;42.602;23.468;2022-07-06T14:32:55;3.13;;;2.40;;
6203;SDS011;3135;42.602;23.468;2022-07-06T14:35:21;2.88;;;2.38;;
6203;SDS011;3135;42.602;23.468;2022-07-06T14:37:47;2.40;;;2.20;;
6203;SDS011;3135;42.602;23.468;2022-07-06T14:40:12;2.30;;;2.20;;
6203;SDS011;3135;42.602;23.468;2022-07-06T14:42:38;3.77;;;2.50;;
6203;SDS011;3135;42.602;23.468;2022-07-06T14:45:03;2.25;;;2.00;;
6203;SDS011;3135;42.602;23.468;2022-07-06T14:47:29;2.22;;;2.13;;
6203;SDS011;3135;42.602;23.468;2022-07-06T14:49:54;2.23;;;2.03;;
6203;SDS011;3135;42.602;23.468;2022-07-06T14:52:20;2.20;;;2.10;;
6203;SDS011;3135;42.602;23.468;2022-07-06T14:54:45;2.37;;;2.10;;
6203;SDS011;3135;42.602;23.468;2022-07-06T14:57:11;2.35;;;2.20;;
6203;SDS011;3135;42.602;23.468;2022-07-06T14:59:36;2.10;;;2.00;;
6203;SDS011;3135;42.602;23.468;2022-07-06T15:02:02;1.98;;;1.85;;
6203;SDS011;3135;42.602;23.468;2022-07-06T15:04:28;3.40;;;2.00;;
6203;SDS011;3135;42.602;23.468;2022-07-06T15:06:54;2.83;;;2.50;;
6203;SDS011;3135;42.602;23.468;2022-07-06T15:09:19;2.20;;;2.10;;
6203;SDS011;3135;42.602;23.468;2022-07-06T15:11:45;2.43;;;2.23;;
6203;SDS011;3135;42.602;23.468;2022-07-06T15:14:11;4.63;;;2.40;;
6203;SDS011;3135;42.602;23.468;2022-07-06T15:16:37;2.40;;;2.07;;